sensor_id;sensor_type;location;lat;lon;timestamp;pressure;altitude;pressure_sealevel;temperature;humidity
11345;BME280;5727;42.600;23.028;2023-08-07T00:00:19;93163.03;;;17.91;100.00
11345;BME280;5727;42.600;23.028;2023-08-07T00:02:45;93171.00;;;17.88;100.00
11345;BME280;5727;42.600;23.028;2023-08-07T00:05:12;93178.59;;;17.82;100.00
11345;BME280;5727;42.600;23.028;2023-08-07T00:07:40;93177.09;;;17.74;100.00
11345;BME280;5727;42.600;23.028;2023-08-07T00:10:07;93179.75;;;17.74;100.00
11345;BME280;5727;42.600;23.028;2023-08-07T00:12:36;93172.91;;;17.73;100.00
11345;BME280;5727;42.600;23.028;2023-08-07T00:15:04;93174.06;;;17.72;100.00
11345;BME280;5727;42.600;23.028;2023-08-07T00:17:31;93177.84;;;17.71;100.00
11345;BME280;5727;42.600;23.028;2023-08-07T00:19:58;93177.50;;;17.69;100.00
11345;BME280;5727;42.600;23.028;2023-08-07T00:22:24;93177.50;;;17.69;100.00
11345;BME280;5727;42.600;23.028;2023-08-07T00:24:53;93171.44;;;17.65;100.00
11345;BME280;5727;42.600;23.028;2023-08-07T00:27:19;93174.09;;;17.58;100.00
11345;BME280;5727;42.600;23.028;2023-08-07T00:29:46;93175.59;;;17.52;100.00
11345;BME280;5727;42.600;23.028;2023-08-07T00:32:13;93167.66;;;17.52;100.00
11345;BME280;5727;42.600;23.028;2023-08-07T00:34:39;93161.25;;;17.50;100.00
11345;BME280;5727;42.600;23.028;2023-08-07T00:37:06;93167.28;;;17.50;100.00
11345;BME280;5727;42.600;23.028;2023-08-07T00:39:33;93172.56;;;17.47;100.00
11345;BME280;5727;42.600;23.028;2023-08-07T00:42:01;93169.53;;;17.45;100.00
11345;BME280;5727;42.600;23.028;2023-08-07T00:44:28;93177.88;;;17.39;100.00
11345;BME280;5727;42.600;23.028;2023-08-07T00:46:55;93177.13;;;17.35;100.00
11345;BME280;5727;42.600;23.028;2023-08-07T00:49:22;93186.94;;;17.35;100.00
11345;BME280;5727;42.600;23.028;2023-08-07T00:51:48;93187.34;;;17.26;100.00
11345;BME280;5727;42.600;23.028;2023-08-07T00:54:18;93196.78;;;17.27;100.00
11345;BME280;5727;42.600;23.028;2023-08-07T00:56:46;93190.00;;;17.26;100.00
11345;BME280;5727;42.600;23.028;2023-08-07T00:59:14;93203.97;;;17.27;100.00
11345;BME280;5727;42.600;23.028;2023-08-07T01:01:42;93198.31;;;17.25;100.00
11345;BME280;5727;42.600;23.028;2023-08-07T01:04:08;93205.13;;;17.19;100.00
11345;BME280;5727;42.600;23.028;2023-08-07T01:06:35;93208.50;;;17.19;100.00
11345;BME280;5727;42.600;23.028;2023-08-07T01:09:02;93211.53;;;17.18;100.00
11345;BME280;5727;42.600;23.028;2023-08-07T01:11:34;93207.38;;;17.17;100.00
11345;BME280;5727;42.600;23.028;2023-08-07T01:14:08;93207.75;;;17.12;100.00
11345;BME280;5727;42.600;23.028;2023-08-07T01:16:43;93200.19;;;17.03;100.00
11345;BME280;5727;42.600;23.028;2023-08-07T01:19:19;93203.22;;;17.02;100.00
11345;BME280;5727;42.600;23.028;2023-08-07T01:22:03;93210.41;;;17.01;100.00
11345;BME280;5727;42.600;23.028;2023-08-07T01:24:30;93205.50;;;17.00;100.00
11345;BME280;5727;42.600;23.028;2023-08-07T01:26:58;93211.91;;;16.99;100.00
11345;BME280;5727;42.600;23.028;2023-08-07T01:29:30;93209.63;;;17.01;100.00
11345;BME280;5727;42.600;23.028;2023-08-07T01:32:02;93210.41;;;16.98;100.00
11345;BME280;5727;42.600;23.028;2023-08-07T01:34:33;93215.69;;;16.98;100.00
11345;BME280;5727;42.600;23.028;2023-08-07T01:37:03;93214.94;;;16.94;100.00
11345;BME280;5727;42.600;23.028;2023-08-07T01:39:31;93217.56;;;16.94;100.00
11345;BME280;5727;42.600;23.028;2023-08-07T01:41:58;93219.06;;;16.95;100.00
11345;BME280;5727;42.600;23.028;2023-08-07T01:44:28;93213.03;;;16.91;100.00
11345;BME280;5727;42.600;23.028;2023-08-07T01:46:55;93215.66;;;16.87;100.00
11345;BME280;5727;42.600;23.028;2023-08-07T01:49:22;93212.25;;;16.87;100.00
11345;BME280;5727;42.600;23.028;2023-08-07T01:51:49;93214.53;;;16.85;100.00
11345;BME280;5727;42.600;23.028;2023-08-07T01:54:17;93215.28;;;16.85;100.00
11345;BME280;5727;42.600;23.028;2023-08-07T01:56:43;93214.53;;;16.85;100.00
11345;BME280;5727;42.600;23.028;2023-08-07T01:59:10;93214.91;;;16.83;100.00
11345;BME280;5727;42.600;23.028;2023-08-07T02:01:37;93220.94;;;16.84;100.00
11345;BME280;5727;42.600;23.028;2023-08-07T02:04:04;93225.47;;;16.80;100.00
11345;BME280;5727;42.600;23.028;2023-08-07T02:06:30;93226.25;;;16.77;100.00
11345;BME280;5727;42.600;23.028;2023-08-07T02:08:57;93225.47;;;16.73;100.00
11345;BME280;5727;42.600;23.028;2023-08-07T02:11:25;93226.59;;;16.72;100.00
11345;BME280;5727;42.600;23.028;2023-08-07T02:13:52;93229.22;;;16.72;100.00
11345;BME280;5727;42.600;23.028;2023-08-07T02:16:18;93232.25;;;16.74;100.00
11345;BME280;5727;42.600;23.028;2023-08-07T02:18:45;93229.22;;;16.72;100.00
11345;BME280;5727;42.600;23.028;2023-08-07T02:21:12;93233.03;;;16.67;100.00
11345;BME280;5727;42.600;23.028;2023-08-07T02:23:39;93230.72;;;16.66;100.00
11345;BME280;5727;42.600;23.028;2023-08-07T02:26:06;93239.41;;;16.59;100.00
11345;BME280;5727;42.600;23.028;2023-08-07T02:28:34;93243.94;;;16.59;100.00
11345;BME280;5727;42.600;23.028;2023-08-07T02:31:01;93240.16;;;16.56;100.00
11345;BME280;5727;42.600;23.028;2023-08-07T02:33:28;93243.53;;;16.53;100.00
11345;BME280;5727;42.600;23.028;2023-08-07T02:35:55;93246.56;;;16.52;100.00
11345;BME280;5727;42.600;23.028;2023-08-07T02:38:24;93241.22;;;16.44;100.00
11345;BME280;5727;42.600;23.028;2023-08-07T02:40:51;93245.75;;;16.40;100.00
11345;BME280;5727;42.600;23.028;2023-08-07T02:43:18;93254.41;;;16.37;100.00
11345;BME280;5727;42.600;23.028;2023-08-07T02:45:46;93250.22;;;16.33;100.00
11345;BME280;5727;42.600;23.028;2023-08-07T02:48:12;93250.22;;;16.29;100.00
11345;BME280;5727;42.600;23.028;2023-08-07T02:50:39;93250.22;;;16.33;100.00
11345;BME280;5727;42.600;23.028;2023-08-07T02:53:06;93251.78;;;16.37;100.00
11345;BME280;5727;42.600;23.028;2023-08-07T02:55:33;93251.38;;;16.35;100.00
11345;BME280;5727;42.600;23.028;2023-08-07T02:58:00;93245.72;;;16.33;100.00
11345;BME280;5727;42.600;23.028;2023-08-07T03:00:26;93251.00;;;16.37;100.00
11345;BME280;5727;42.600;23.028;2023-08-07T03:02:55;93256.28;;;16.33;100.00
11345;BME280;5727;42.600;23.028;2023-08-07T03:05:21;93254.00;;;16.32;100.00
11345;BME280;5727;42.600;23.028;2023-08-07T03:07:48;93261.94;;;16.32;100.00
11345;BME280;5727;42.600;23.028;2023-08-07T03:10:15;93249.84;;;16.31;100.00
11345;BME280;5727;42.600;23.028;2023-08-07T03:12:42;93253.25;;;16.31;100.00
11345;BME280;5727;42.600;23.028;2023-08-07T03:15:10;93251.75;;;16.30;100.00
11345;BME280;5727;42.600;23.028;2023-08-07T03:17:36;93256.25;;;16.26;100.00
11345;BME280;5727;42.600;23.028;2023-08-07T03:20:05;93256.97;;;16.23;100.00
11345;BME280;5727;42.600;23.028;2023-08-07T03:22:32;93254.34;;;16.23;100.00
11345;BME280;5727;42.600;23.028;2023-08-07T03:24:59;93259.22;;;16.18;100.00
11345;BME280;5727;42.600;23.028;2023-08-07T03:27:26;93263.38;;;16.15;100.00
11345;BME280;5727;42.600;23.028;2023-08-07T03:29:53;93248.66;;;16.14;100.00
11345;BME280;5727;42.600;23.028;2023-08-07T03:32:20;93259.59;;;16.16;100.00
11345;BME280;5727;42.600;23.028;2023-08-07T03:34:47;93281.13;;;16.15;100.00
11345;BME280;5727;42.600;23.028;2023-08-07T03:37:15;93273.53;;;16.10;100.00
11345;BME280;5727;42.600;23.028;2023-08-07T03:39:41;93281.09;;;16.08;100.00
11345;BME280;5727;42.600;23.028;2023-08-07T03:42:13;93286.34;;;16.04;100.00
11345;BME280;5727;42.600;23.028;2023-08-07T03:44:40;93289.38;;;16.06;100.00
11345;BME280;5727;42.600;23.028;2023-08-07T03:47:07;93293.56;;;16.11;100.00
11345;BME280;5727;42.600;23.028;2023-08-07T03:49:34;93300.31;;;16.08;100.00
11345;BME280;5727;42.600;23.028;2023-08-07T03:52:01;93305.25;;;16.10;100.00
11345;BME280;5727;42.600;23.028;2023-08-07T03:54:29;93309.44;;;16.14;100.00
11345;BME280;5727;42.600;23.028;2023-08-07T03:56:55;93303.41;;;16.17;100.00
11345;BME280;5727;42.600;23.028;2023-08-07T03:59:22;93313.25;;;16.20;100.00
11345;BME280;5727;42.600;23.028;2023-08-07T04:01:49;93307.59;;;16.25;100.00
11345;BME280;5727;42.600;23.028;2023-08-07T04:04:16;93314.03;;;16.28;100.00
11345;BME280;5727;42.600;23.028;2023-08-07T04:06:43;93312.16;;;16.28;100.00
11345;BME280;5727;42.600;23.028;2023-08-07T04:09:10;93304.22;;;16.28;100.00
11345;BME280;5727;42.600;23.028;2023-08-07T04:11:38;93308.38;;;16.29;100.00
11345;BME280;5727;42.600;23.028;2023-08-07T04:14:06;93318.63;;;16.34;100.00
11345;BME280;5727;42.600;23.028;2023-08-07T04:16:33;93317.50;;;16.42;100.00
11345;BME280;5727;42.600;23.028;2023-08-07T04:19:02;93305.44;;;16.45;100.00
11345;BME280;5727;42.600;23.028;2023-08-07T04:21:29;93314.16;;;16.49;100.00
11345;BME280;5727;42.600;23.028;2023-08-07T04:23:56;93305.16;;;16.57;100.00
11345;BME280;5727;42.600;23.028;2023-08-07T04:26:25;93307.44;;;16.66;100.00
11345;BME280;5727;42.600;23.028;2023-08-07T04:28:54;93315.41;;;16.73;100.00
11345;BME280;5727;42.600;23.028;2023-08-07T04:31:20;93317.69;;;16.78;100.00
11345;BME280;5727;42.600;23.028;2023-08-07T04:33:48;93317.69;;;16.78;100.00
11345;BME280;5727;42.600;23.028;2023-08-07T04:36:14;93315.44;;;16.83;100.00
11345;BME280;5727;42.600;23.028;2023-08-07T04:38:41;93314.66;;;16.72;100.00
11345;BME280;5727;42.600;23.028;2023-08-07T04:41:08;93316.19;;;16.77;100.00
11345;BME280;5727;42.600;23.028;2023-08-07T04:43:36;93316.13;;;16.70;100.00
11345;BME280;5727;42.600;23.028;2023-08-07T04:46:04;93320.34;;;16.85;100.00
11345;BME280;5727;42.600;23.028;2023-08-07T04:48:30;93325.31;;;16.93;100.00
11345;BME280;5727;42.600;23.028;2023-08-07T04:50:58;93335.16;;;17.07;100.00
11345;BME280;5727;42.600;23.028;2023-08-07T04:53:25;93325.34;;;17.07;100.00
11345;BME280;5727;42.600;23.028;2023-08-07T04:55:51;93327.63;;;17.16;100.00
11345;BME280;5727;42.600;23.028;2023-08-07T04:58:18;93337.44;;;17.05;100.00
11345;BME280;5727;42.600;23.028;2023-08-07T05:00:45;93336.28;;;17.02;100.00
11345;BME280;5727;42.600;23.028;2023-08-07T05:03:13;93338.94;;;17.06;100.00
11345;BME280;5727;42.600;23.028;2023-08-07T05:05:43;93346.53;;;17.04;100.00
11345;BME280;5727;42.600;23.028;2023-08-07T05:08:10;93341.63;;;17.20;100.00
11345;BME280;5727;42.600;23.028;2023-08-07T05:10:37;93344.28;;;17.27;100.00
11345;BME280;5727;42.600;23.028;2023-08-07T05:13:03;93330.31;;;17.37;100.00
11345;BME280;5727;42.600;23.028;2023-08-07T05:15:30;93330.00;;;17.49;100.00
11345;BME280;5727;42.600;23.028;2023-08-07T05:17:57;93331.13;;;17.55;100.00
11345;BME280;5727;42.600;23.028;2023-08-07T05:20:25;93325.44;;;17.60;100.00
11345;BME280;5727;42.600;23.028;2023-08-07T05:22:52;93333.78;;;17.69;100.00
11345;BME280;5727;42.600;23.028;2023-08-07T05:25:19;93333.41;;;17.74;100.00
11345;BME280;5727;42.600;23.028;2023-08-07T05:27:46;93330.75;;;17.81;100.00
11345;BME280;5727;42.600;23.028;2023-08-07T05:30:13;93340.59;;;17.88;100.00
11345;BME280;5727;42.600;23.028;2023-08-07T05:32:40;93336.03;;;17.99;100.00
11345;BME280;5727;42.600;23.028;2023-08-07T05:35:07;93333.75;;;18.08;100.00
11345;BME280;5727;42.600;23.028;2023-08-07T05:37:36;93333.38;;;18.16;100.00
11345;BME280;5727;42.600;23.028;2023-08-07T05:40:04;93331.09;;;18.22;100.00
11345;BME280;5727;42.600;23.028;2023-08-07T05:42:31;93334.50;;;18.29;100.00
11345;BME280;5727;42.600;23.028;2023-08-07T05:44:58;93337.13;;;18.33;100.00
11345;BME280;5727;42.600;23.028;2023-08-07T05:47:24;93332.97;;;18.43;100.00
11345;BME280;5727;42.600;23.028;2023-08-07T05:49:51;93338.28;;;18.43;100.00
11345;BME280;5727;42.600;23.028;2023-08-07T05:52:19;93336.00;;;18.52;100.00
11345;BME280;5727;42.600;23.028;2023-08-07T05:54:47;93334.09;;;18.59;100.00
11345;BME280;5727;42.600;23.028;2023-08-07T05:57:14;93338.56;;;18.69;100.00
11345;BME280;5727;42.600;23.028;2023-08-07T05:59:41;93331.75;;;18.72;100.00
11345;BME280;5727;42.600;23.028;2023-08-07T06:02:08;93332.84;;;18.81;100.00
11345;BME280;5727;42.600;23.028;2023-08-07T06:04:37;93340.41;;;18.90;100.00
11345;BME280;5727;42.600;23.028;2023-08-07T06:07:04;93323.34;;;18.87;100.00
11345;BME280;5727;42.600;23.028;2023-08-07T06:09:33;93324.09;;;18.91;100.00
11345;BME280;5727;42.600;23.028;2023-08-07T06:12:02;93333.25;;;18.80;100.00
11345;BME280;5727;42.600;23.028;2023-08-07T06:14:29;93334.81;;;18.60;100.00
11345;BME280;5727;42.600;23.028;2023-08-07T06:16:55;93332.97;;;18.43;100.00
11345;BME280;5727;42.600;23.028;2023-08-07T06:19:24;93327.66;;;18.46;100.00
11345;BME280;5727;42.600;23.028;2023-08-07T06:21:52;93333.72;;;18.57;100.00
11345;BME280;5727;42.600;23.028;2023-08-07T06:24:19;93342.00;;;18.70;100.00
11345;BME280;5727;42.600;23.028;2023-08-07T06:26:50;93339.69;;;18.79;100.00
11345;BME280;5727;42.600;23.028;2023-08-07T06:29:19;93337.00;;;18.89;100.00
11345;BME280;5727;42.600;23.028;2023-08-07T06:31:46;93336.94;;;19.03;100.00
11345;BME280;5727;42.600;23.028;2023-08-07T06:34:12;93341.84;;;19.08;100.00
11345;BME280;5727;42.600;23.028;2023-08-07T06:36:39;93341.78;;;19.15;100.00
11345;BME280;5727;42.600;23.028;2023-08-07T06:39:06;93350.91;;;19.14;98.58
11345;BME280;5727;42.600;23.028;2023-08-07T06:41:33;93346.00;;;19.06;100.00
11345;BME280;5727;42.600;23.028;2023-08-07T06:43:59;93343.69;;;19.11;100.00
11345;BME280;5727;42.600;23.028;2023-08-07T06:46:27;93347.09;;;19.19;100.00
11345;BME280;5727;42.600;23.028;2023-08-07T06:48:54;93345.53;;;19.29;100.00
11345;BME280;5727;42.600;23.028;2023-08-07T06:51:21;93335.22;;;19.45;100.00
11345;BME280;5727;42.600;23.028;2023-08-07T06:53:48;93341.59;;;19.54;100.00
11345;BME280;5727;42.600;23.028;2023-08-07T06:56:14;93349.25;;;19.45;100.00
11345;BME280;5727;42.600;23.028;2023-08-07T06:58:41;93360.16;;;19.61;100.00
11345;BME280;5727;42.600;23.028;2023-08-07T07:01:08;93363.91;;;19.71;98.11
11345;BME280;5727;42.600;23.028;2023-08-07T07:03:36;93359.78;;;19.63;97.36
11345;BME280;5727;42.600;23.028;2023-08-07T07:06:03;93357.47;;;19.68;96.98
11345;BME280;5727;42.600;23.028;2023-08-07T07:08:30;93358.53;;;19.78;97.10
11345;BME280;5727;42.600;23.028;2023-08-07T07:10:56;93362.31;;;19.80;95.97
11345;BME280;5727;42.600;23.028;2023-08-07T07:13:23;93353.56;;;19.83;96.62
11345;BME280;5727;42.600;23.028;2023-08-07T07:15:53;93345.22;;;19.81;95.32
11345;BME280;5727;42.600;23.028;2023-08-07T07:18:20;93344.44;;;19.81;95.21
11345;BME280;5727;42.600;23.028;2023-08-07T07:20:50;93341.81;;;19.77;94.37
11345;BME280;5727;42.600;23.028;2023-08-07T07:23:18;93337.53;;;19.90;96.85
11345;BME280;5727;42.600;23.028;2023-08-07T07:25:44;93331.38;;;20.00;96.02
11345;BME280;5727;42.600;23.028;2023-08-07T07:28:11;93335.13;;;20.06;93.51
11345;BME280;5727;42.600;23.028;2023-08-07T07:30:39;93338.53;;;20.11;92.96
11345;BME280;5727;42.600;23.028;2023-08-07T07:33:05;93339.53;;;20.27;92.48
11345;BME280;5727;42.600;23.028;2023-08-07T07:35:37;93350.09;;;20.38;88.19
11345;BME280;5727;42.600;23.028;2023-08-07T07:38:05;93346.69;;;20.34;85.48
11345;BME280;5727;42.600;23.028;2023-08-07T07:40:34;93352.31;;;20.43;84.32
11345;BME280;5727;42.600;23.028;2023-08-07T07:43:00;93347.97;;;20.56;82.28
11345;BME280;5727;42.600;23.028;2023-08-07T07:45:27;93355.91;;;20.63;82.17
11345;BME280;5727;42.600;23.028;2023-08-07T07:47:54;93349.34;;;20.71;81.92
11345;BME280;5727;42.600;23.028;2023-08-07T07:50:21;93342.50;;;20.33;81.79
11345;BME280;5727;42.600;23.028;2023-08-07T07:52:48;93338.72;;;20.34;83.42
11345;BME280;5727;42.600;23.028;2023-08-07T07:55:16;93330.63;;;20.44;81.84
11345;BME280;5727;42.600;23.028;2023-08-07T07:57:43;93341.53;;;20.57;81.58
11345;BME280;5727;42.600;23.028;2023-08-07T08:00:11;93336.56;;;20.59;80.05
11345;BME280;5727;42.600;23.028;2023-08-07T08:02:39;93333.53;;;20.57;80.87
11345;BME280;5727;42.600;23.028;2023-08-07T08:05:08;93327.78;;;20.62;80.34
11345;BME280;5727;42.600;23.028;2023-08-07T08:07:36;93324.06;;;20.52;80.07
11345;BME280;5727;42.600;23.028;2023-08-07T08:10:05;93319.09;;;20.54;82.71
11345;BME280;5727;42.600;23.028;2023-08-07T08:12:33;93317.31;;;20.44;83.47
11345;BME280;5727;42.600;23.028;2023-08-07T08:15:00;93321.19;;;20.40;84.34
11345;BME280;5727;42.600;23.028;2023-08-07T08:17:28;93310.00;;;20.52;84.17
11345;BME280;5727;42.600;23.028;2023-08-07T08:19:54;93308.28;;;20.72;83.25
11345;BME280;5727;42.600;23.028;2023-08-07T08:22:21;93307.25;;;20.92;83.37
11345;BME280;5727;42.600;23.028;2023-08-07T08:24:48;93305.22;;;21.04;80.59
11345;BME280;5727;42.600;23.028;2023-08-07T08:27:15;93298.97;;;21.17;78.37
11345;BME280;5727;42.600;23.028;2023-08-07T08:29:44;93301.78;;;21.07;78.04
11345;BME280;5727;42.600;23.028;2023-08-07T08:32:11;93303.28;;;21.08;77.12
11345;BME280;5727;42.600;23.028;2023-08-07T08:34:38;93305.00;;;21.21;77.91
11345;BME280;5727;42.600;23.028;2023-08-07T08:37:05;93301.03;;;21.33;75.36
11345;BME280;5727;42.600;23.028;2023-08-07T08:39:32;93294.22;;;21.32;75.16
11345;BME280;5727;42.600;23.028;2023-08-07T08:41:59;93296.28;;;21.47;76.96
11345;BME280;5727;42.600;23.028;2023-08-07T08:44:26;93291.41;;;21.65;77.58
11345;BME280;5727;42.600;23.028;2023-08-07T08:46:59;93306.50;;;21.75;74.26
11345;BME280;5727;42.600;23.028;2023-08-07T08:49:30;93303.44;;;21.77;72.03
11345;BME280;5727;42.600;23.028;2023-08-07T08:51:59;93300.28;;;21.86;72.85
11345;BME280;5727;42.600;23.028;2023-08-07T08:54:26;93295.19;;;21.95;75.99
11345;BME280;5727;42.600;23.028;2023-08-07T08:56:53;93291.47;;;22.12;72.52
11345;BME280;5727;42.600;23.028;2023-08-07T08:59:21;93287.09;;;22.21;72.67
11345;BME280;5727;42.600;23.028;2023-08-07T09:01:49;93282.09;;;22.23;70.45
11345;BME280;5727;42.600;23.028;2023-08-07T09:04:19;93282.38;;;22.29;70.85
11345;BME280;5727;42.600;23.028;2023-08-07T09:06:46;93279.91;;;22.18;69.68
11345;BME280;5727;42.600;23.028;2023-08-07T09:09:14;93268.84;;;22.20;71.19
11345;BME280;5727;42.600;23.028;2023-08-07T09:11:41;93265.22;;;22.30;73.58
11345;BME280;5727;42.600;23.028;2023-08-07T09:14:09;93268.78;;;22.43;72.37
11345;BME280;5727;42.600;23.028;2023-08-07T09:16:38;93275.03;;;22.56;77.32
11345;BME280;5727;42.600;23.028;2023-08-07T09:19:06;93277.38;;;22.73;73.74
11345;BME280;5727;42.600;23.028;2023-08-07T09:21:34;93279.84;;;22.84;73.02
11345;BME280;5727;42.600;23.028;2023-08-07T09:24:01;93285.22;;;23.00;72.27
11345;BME280;5727;42.600;23.028;2023-08-07T09:26:28;93288.09;;;23.09;72.86
11345;BME280;5727;42.600;23.028;2023-08-07T09:28:55;93276.44;;;23.19;70.40
11345;BME280;5727;42.600;23.028;2023-08-07T09:31:26;93282.38;;;23.27;72.52
11345;BME280;5727;42.600;23.028;2023-08-07T09:33:53;93273.94;;;23.28;70.35
11345;BME280;5727;42.600;23.028;2023-08-07T09:36:19;93278.22;;;23.26;67.31
11345;BME280;5727;42.600;23.028;2023-08-07T09:38:50;93273.75;;;23.39;68.68
11345;BME280;5727;42.600;23.028;2023-08-07T09:41:18;93280.69;;;23.52;67.86
11345;BME280;5727;42.600;23.028;2023-08-07T09:43:45;93282.47;;;23.59;68.01
11345;BME280;5727;42.600;23.028;2023-08-07T09:46:12;93281.63;;;23.62;67.30
11345;BME280;5727;42.600;23.028;2023-08-07T09:48:40;93277.75;;;23.63;66.87
11345;BME280;5727;42.600;23.028;2023-08-07T09:51:07;93283.69;;;23.54;67.98
11345;BME280;5727;42.600;23.028;2023-08-07T09:53:34;93278.19;;;23.61;69.61
11345;BME280;5727;42.600;23.028;2023-08-07T09:56:03;93277.38;;;23.65;69.20
11345;BME280;5727;42.600;23.028;2023-08-07T09:58:30;93280.53;;;23.92;68.11
11345;BME280;5727;42.600;23.028;2023-08-07T10:00:59;93273.25;;;24.08;63.64
11345;BME280;5727;42.600;23.028;2023-08-07T10:03:26;93279.09;;;24.19;63.33
11345;BME280;5727;42.600;23.028;2023-08-07T10:05:53;93276.31;;;24.23;61.96
11345;BME280;5727;42.600;23.028;2023-08-07T10:08:21;93267.13;;;24.24;61.73
11345;BME280;5727;42.600;23.028;2023-08-07T10:10:48;93272.25;;;24.18;63.11
11345;BME280;5727;42.600;23.028;2023-08-07T10:13:17;93266.28;;;24.27;64.48
11345;BME280;5727;42.600;23.028;2023-08-07T10:15:45;93262.63;;;24.49;66.93
11345;BME280;5727;42.600;23.028;2023-08-07T10:18:12;93257.75;;;24.61;65.94
11345;BME280;5727;42.600;23.028;2023-08-07T10:20:39;93260.47;;;24.73;62.76
11345;BME280;5727;42.600;23.028;2023-08-07T10:23:09;93264.25;;;24.76;62.75
11345;BME280;5727;42.600;23.028;2023-08-07T10:25:38;93271.09;;;24.77;61.82
11345;BME280;5727;42.600;23.028;2023-08-07T10:28:08;93258.94;;;25.01;61.75
11345;BME280;5727;42.600;23.028;2023-08-07T10:30:38;93256.69;;;25.12;59.61
11345;BME280;5727;42.600;23.028;2023-08-07T10:33:07;93258.22;;;25.25;61.34
11345;BME280;5727;42.600;23.028;2023-08-07T10:35:35;93259.16;;;25.19;60.54
11345;BME280;5727;42.600;23.028;2023-08-07T10:38:05;93260.34;;;25.18;59.17
11345;BME280;5727;42.600;23.028;2023-08-07T10:40:34;93251.72;;;24.85;60.57
11345;BME280;5727;42.600;23.028;2023-08-07T10:43:13;93252.94;;;24.97;61.23
11345;BME280;5727;42.600;23.028;2023-08-07T10:45:41;93248.84;;;24.92;59.43
11345;BME280;5727;42.600;23.028;2023-08-07T10:48:10;93237.59;;;24.97;60.43
11345;BME280;5727;42.600;23.028;2023-08-07T10:50:49;93244.69;;;25.16;60.20
11345;BME280;5727;42.600;23.028;2023-08-07T10:53:20;93231.59;;;25.31;59.58
11345;BME280;5727;42.600;23.028;2023-08-07T10:55:54;93237.28;;;25.33;58.86
11345;BME280;5727;42.600;23.028;2023-08-07T10:58:23;93228.94;;;25.31;58.45
11345;BME280;5727;42.600;23.028;2023-08-07T11:03:35;93219.19;;;26.09;58.28
11345;BME280;5727;42.600;23.028;2023-08-07T11:06:02;93220.66;;;26.66;58.37
11345;BME280;5727;42.600;23.028;2023-08-07T11:08:29;93220.22;;;27.10;56.66
11345;BME280;5727;42.600;23.028;2023-08-07T11:10:57;93221.41;;;27.49;51.92
11345;BME280;5727;42.600;23.028;2023-08-07T11:13:30;93214.13;;;27.59;51.74
11345;BME280;5727;42.600;23.028;2023-08-07T11:15:58;93213.28;;;27.80;49.52
11345;BME280;5727;42.600;23.028;2023-08-07T11:18:26;93207.75;;;27.83;49.64
11345;BME280;5727;42.600;23.028;2023-08-07T11:20:53;93202.88;;;28.00;49.32
11345;BME280;5727;42.600;23.028;2023-08-07T11:23:23;93192.69;;;28.13;49.50
11345;BME280;5727;42.600;23.028;2023-08-07T11:25:50;93195.72;;;28.33;48.34
11345;BME280;5727;42.600;23.028;2023-08-07T11:28:18;93207.31;;;27.85;46.61
11345;BME280;5727;42.600;23.028;2023-08-07T11:30:45;93207.13;;;27.70;47.29
11345;BME280;5727;42.600;23.028;2023-08-07T11:33:13;93205.47;;;27.64;47.85
11345;BME280;5727;42.600;23.028;2023-08-07T11:35:41;93199.94;;;27.67;47.91
11345;BME280;5727;42.600;23.028;2023-08-07T11:38:09;93208.63;;;27.62;49.04
11345;BME280;5727;42.600;23.028;2023-08-07T11:40:35;93193.00;;;27.97;47.68
11345;BME280;5727;42.600;23.028;2023-08-07T11:43:03;93200.56;;;27.89;47.70
11345;BME280;5727;42.600;23.028;2023-08-07T11:45:29;93215.38;;;27.85;47.80
11345;BME280;5727;42.600;23.028;2023-08-07T11:47:56;93200.31;;;27.39;48.83
11345;BME280;5727;42.600;23.028;2023-08-07T11:50:27;93204.38;;;28.10;48.43
11345;BME280;5727;42.600;23.028;2023-08-07T11:52:54;93201.06;;;28.51;45.35
11345;BME280;5727;42.600;23.028;2023-08-07T11:55:28;93208.28;;;28.18;46.20
11345;BME280;5727;42.600;23.028;2023-08-07T11:57:55;93206.41;;;27.79;47.61
11345;BME280;5727;42.600;23.028;2023-08-07T12:00:25;93204.72;;;27.72;49.22
11345;BME280;5727;42.600;23.028;2023-08-07T12:02:53;93203.47;;;27.46;49.66
11345;BME280;5727;42.600;23.028;2023-08-07T12:05:19;93200.03;;;26.84;51.88
11345;BME280;5727;42.600;23.028;2023-08-07T12:07:48;93202.13;;;26.59;54.17
11345;BME280;5727;42.600;23.028;2023-08-07T12:10:15;93199.06;;;26.26;55.18
11345;BME280;5727;42.600;23.028;2023-08-07T12:12:42;93196.59;;;26.19;57.25
11345;BME280;5727;42.600;23.028;2023-08-07T12:15:10;93190.78;;;26.20;57.50
11345;BME280;5727;42.600;23.028;2023-08-07T12:17:37;93198.31;;;26.25;56.71
11345;BME280;5727;42.600;23.028;2023-08-07T12:20:05;93191.91;;;26.32;56.52
11345;BME280;5727;42.600;23.028;2023-08-07T12:22:35;93203.91;;;26.40;56.76
11345;BME280;5727;42.600;23.028;2023-08-07T12:25:04;93195.41;;;26.42;57.51
11345;BME280;5727;42.600;23.028;2023-08-07T12:27:31;93205.34;;;26.32;57.40
11345;BME280;5727;42.600;23.028;2023-08-07T12:29:58;93204.94;;;25.87;59.25
11345;BME280;5727;42.600;23.028;2023-08-07T12:32:25;93201.31;;;25.81;60.01
11345;BME280;5727;42.600;23.028;2023-08-07T12:34:51;93214.16;;;25.86;62.43
11345;BME280;5727;42.600;23.028;2023-08-07T12:37:19;93209.44;;;25.90;63.71
11345;BME280;5727;42.600;23.028;2023-08-07T12:39:46;93206.19;;;25.61;62.74
11345;BME280;5727;42.600;23.028;2023-08-07T12:42:14;93209.75;;;25.92;61.40
11345;BME280;5727;42.600;23.028;2023-08-07T12:44:40;93218.06;;;25.85;61.94
11345;BME280;5727;42.600;23.028;2023-08-07T12:47:08;93220.00;;;25.72;63.27
11345;BME280;5727;42.600;23.028;2023-08-07T12:49:35;93222.19;;;25.52;63.18
11345;BME280;5727;42.600;23.028;2023-08-07T12:52:02;93229.25;;;25.20;66.72
11345;BME280;5727;42.600;23.028;2023-08-07T12:54:29;93237.47;;;24.88;68.72
11345;BME280;5727;42.600;23.028;2023-08-07T12:56:57;93226.75;;;24.60;70.11
11345;BME280;5727;42.600;23.028;2023-08-07T12:59:25;93223.84;;;24.41;71.27